createdAt,value
2023-02-12T00:03:27.991Z,6.63
2023-02-12T00:08:34.350Z,6.62
2023-02-12T00:13:38.898Z,6.59
2023-02-12T00:18:45.906Z,6.59
2023-02-12T00:23:51.320Z,6.57
2023-02-12T00:28:55.632Z,6.57
2023-02-12T00:33:59.289Z,6.54
2023-02-12T00:39:03.961Z,6.52
2023-02-12T00:44:08.245Z,6.50
2023-02-12T00:49:10.816Z,6.52
2023-02-12T00:54:13.273Z,6.50
2023-02-12T00:59:15.382Z,6.49
2023-02-12T01:04:19.775Z,6.48
2023-02-12T01:09:24.802Z,6.48
2023-02-12T01:14:26.668Z,6.50
2023-02-12T01:19:31.662Z,6.49
2023-02-12T01:24:35.803Z,6.48
2023-02-12T01:29:44.658Z,6.47
2023-02-12T01:34:51.229Z,6.45
2023-02-12T01:39:55.385Z,6.43
2023-02-12T01:45:12.384Z,6.41
2023-02-12T01:50:17.809Z,6.41
2023-02-12T01:55:22.270Z,6.39
2023-02-12T02:00:25.585Z,6.40
2023-02-12T02:05:43.351Z,6.38
2023-02-12T02:10:53.923Z,6.37
2023-02-12T02:16:00.745Z,6.40
2023-02-12T02:21:19.778Z,6.40
2023-02-12T02:26:47.515Z,6.39
2023-02-12T02:32:03.591Z,6.38
2023-02-12T02:37:34.474Z,6.33
2023-02-12T02:43:10.051Z,6.31
2023-02-12T02:48:16.371Z,6.30
2023-02-12T02:53:27.173Z,6.29
2023-02-12T02:58:40.050Z,6.25
2023-02-12T03:03:46.785Z,6.24
2023-02-12T03:08:55.763Z,6.23
2023-02-12T03:14:03.446Z,6.21
2023-02-12T03:19:12.185Z,6.21
2023-02-12T03:24:21.758Z,6.20
2023-02-12T03:29:23.453Z,6.18
2023-02-12T03:34:43.609Z,6.17
2023-02-12T03:40:16.389Z,6.17
2023-02-12T03:45:47.691Z,6.17
2023-02-12T03:51:18.202Z,6.17
2023-02-12T03:56:41.737Z,6.14
2023-02-12T04:01:45.803Z,6.14
2023-02-12T04:06:49.360Z,6.16
2023-02-12T04:12:13.368Z,6.16
2023-02-12T04:17:22.727Z,6.15
2023-02-12T04:22:40.953Z,6.14
2023-02-12T04:27:47.775Z,6.15
2023-02-12T04:33:02.391Z,6.15
2023-02-12T04:38:06.561Z,6.18
2023-02-12T04:43:08.692Z,6.18
2023-02-12T04:48:10.637Z,6.18
2023-02-12T04:53:14.638Z,6.19
2023-02-12T04:58:17.275Z,6.16
2023-02-12T05:03:21.310Z,6.14
2023-02-12T05:08:23.023Z,6.15
2023-02-12T05:13:26.061Z,6.16
2023-02-12T05:18:27.765Z,6.15
2023-02-12T05:23:30.390Z,6.14
2023-02-12T05:28:32.279Z,6.12
2023-02-12T05:33:37.193Z,6.11
2023-02-12T05:38:40.062Z,6.08
2023-02-12T05:43:43.101Z,6.04
2023-02-12T05:48:50.120Z,6.04
2023-02-12T05:53:59.969Z,6.00
2023-02-12T05:59:05.951Z,6.00
2023-02-12T06:04:10.896Z,5.96
2023-02-12T06:09:13.630Z,5.92
2023-02-12T06:14:21.706Z,5.89
2023-02-12T06:19:24.377Z,5.86
2023-02-12T06:24:28.344Z,5.81
2023-02-12T06:29:34.783Z,5.76
2023-02-12T06:34:38.048Z,5.78
2023-02-12T06:39:47.061Z,5.71
2023-02-12T06:44:53.026Z,5.66
2023-02-12T06:49:54.930Z,5.66
2023-02-12T06:54:59.994Z,5.64
2023-02-12T07:00:01.807Z,5.63
2023-02-12T07:05:09.057Z,5.63
2023-02-12T07:10:11.145Z,5.58
2023-02-12T07:15:14.931Z,5.58
2023-02-12T07:20:21.142Z,5.52
2023-02-12T07:25:25.198Z,5.47
2023-02-12T07:30:28.986Z,5.47
2023-02-12T07:35:37.646Z,5.54
2023-02-12T07:40:44.191Z,5.50
2023-02-12T07:45:48.497Z,5.58
2023-02-12T07:50:54.899Z,5.64
2023-02-12T07:56:30.820Z,5.64
2023-02-12T08:01:45.184Z,5.74
2023-02-12T08:06:54.012Z,5.78
2023-02-12T08:11:59.007Z,5.82
2023-02-12T08:17:00.948Z,5.88
2023-02-12T08:22:03.246Z,5.98
2023-02-12T08:27:07.413Z,6.02
2023-02-12T08:32:14.480Z,6.13
2023-02-12T08:37:16.322Z,6.22
2023-02-12T08:42:25.964Z,6.16
2023-02-12T08:47:29.782Z,6.11
2023-02-12T08:52:35.364Z,6.12
2023-02-12T08:57:42.301Z,6.09
2023-02-12T09:02:51.450Z,6.18
2023-02-12T09:07:56.624Z,6.19
2023-02-12T09:13:00.577Z,6.16
2023-02-12T09:18:04.115Z,6.13
2023-02-12T09:23:12.384Z,6.19
2023-02-12T09:28:15.454Z,6.18
2023-02-12T09:33:20.579Z,6.30
2023-02-12T09:38:24.796Z,6.32
2023-02-12T09:43:55.779Z,6.34
2023-02-12T09:49:02.052Z,6.45
2023-02-12T09:54:20.352Z,6.37
2023-02-12T09:59:31.123Z,6.52
2023-02-12T10:04:33.257Z,6.69
2023-02-12T10:09:43.078Z,6.89
2023-02-12T10:14:58.208Z,6.89
2023-02-12T10:20:12.465Z,7.09
2023-02-12T10:25:29.011Z,7.15
2023-02-12T10:30:59.006Z,7.25
2023-02-12T10:36:21.664Z,7.30
2023-02-12T10:41:25.370Z,7.57
2023-02-12T10:46:30.967Z,7.74
2023-02-12T10:52:02.827Z,7.80
2023-02-12T10:57:15.619Z,7.86
2023-02-12T11:02:32.990Z,7.89
2023-02-12T11:07:47.447Z,7.96
2023-02-12T11:12:54.288Z,8.19
2023-02-12T11:18:00.530Z,8.20
2023-02-12T11:23:07.617Z,8.35
2023-02-12T11:28:20.731Z,8.45
2023-02-12T11:33:26.277Z,8.61
2023-02-12T11:38:34.160Z,8.68
2023-02-12T11:43:43.343Z,8.83
2023-02-12T11:48:54.018Z,9.05
2023-02-12T11:54:03.772Z,9.02
2023-02-12T11:59:45.643Z,8.86
2023-02-12T12:04:52.502Z,9.05
2023-02-12T12:10:06.187Z,9.21
2023-02-12T12:15:38.491Z,9.18
2023-02-12T12:21:21.201Z,9.30
2023-02-12T12:26:26.903Z,9.30
2023-02-12T12:31:36.140Z,9.20
2023-02-12T12:36:55.897Z,9.17
2023-02-12T12:42:13.043Z,9.10
2023-02-12T12:47:36.188Z,9.28
2023-02-12T12:52:55.710Z,9.36
2023-02-12T12:58:30.594Z,9.34
2023-02-12T13:04:00.636Z,9.21
2023-02-12T13:09:17.291Z,9.44
2023-02-12T13:15:03.343Z,9.57
2023-02-12T13:20:20.349Z,9.36
2023-02-12T13:25:33.410Z,9.23
2023-02-12T13:30:54.188Z,9.29
2023-02-12T13:36:01.739Z,9.20
2023-02-12T13:41:07.033Z,9.22
2023-02-12T13:46:11.578Z,9.21
2023-02-12T13:51:30.790Z,9.17
2023-02-12T13:56:59.056Z,9.10
2023-02-12T14:02:03.513Z,9.03
2023-02-12T14:07:09.991Z,9.05
2023-02-12T14:12:23.704Z,9.04
2023-02-12T14:17:30.741Z,9.08
2023-02-12T14:22:32.426Z,9.17
2023-02-12T14:27:35.838Z,9.16
2023-02-12T14:32:53.366Z,9.10
2023-02-12T14:38:01.695Z,9.10
2023-02-12T14:43:30.822Z,9.06
2023-02-12T14:49:06.123Z,9.06
2023-02-12T14:54:25.940Z,9.06
2023-02-12T14:59:30.560Z,9.03
2023-02-12T15:04:40.091Z,9.08
2023-02-12T15:09:52.396Z,9.10
2023-02-12T15:15:04.841Z,9.06
2023-02-12T15:20:28.126Z,9.04
2023-02-12T15:25:32.955Z,8.92
2023-02-12T15:30:42.399Z,8.83
2023-02-12T15:35:47.325Z,8.79
2023-02-12T15:40:59.737Z,8.71
2023-02-12T15:46:06.571Z,8.59
2023-02-12T15:51:36.128Z,8.54
2023-02-12T15:56:40.627Z,8.47
2023-02-12T16:01:56.430Z,8.40
2023-02-12T16:06:59.463Z,8.30
2023-02-12T16:12:05.462Z,8.19
2023-02-12T16:17:25.337Z,8.15
2023-02-12T16:22:35.647Z,8.10
2023-02-12T16:27:40.296Z,8.01
2023-02-12T16:32:44.471Z,8.15
2023-02-12T16:38:00.367Z,8.05
2023-02-12T16:43:31.725Z,7.99
2023-02-12T16:48:39.067Z,7.93
2023-02-12T16:53:46.957Z,7.86
2023-02-12T16:58:51.695Z,7.81
2023-02-12T17:03:54.910Z,7.77
2023-02-12T17:09:05.125Z,7.74
2023-02-12T17:14:09.481Z,7.70
2023-02-12T17:19:11.923Z,7.64
2023-02-12T17:24:25.034Z,7.59
2023-02-12T17:29:30.677Z,7.54
2023-02-12T17:34:43.154Z,7.54
2023-02-12T17:39:52.540Z,7.55
2023-02-12T17:44:55.241Z,7.48
2023-02-12T17:49:57.481Z,7.42
2023-02-12T17:54:59.200Z,7.39
2023-02-12T18:00:03.172Z,7.37
2023-02-12T18:05:12.146Z,7.35
2023-02-12T18:10:14.063Z,7.34
2023-02-12T18:15:15.893Z,7.30
2023-02-12T18:20:20.222Z,7.29
2023-02-12T18:25:21.996Z,7.26
2023-02-12T18:30:26.184Z,7.21
2023-02-12T18:35:30.525Z,7.19
2023-02-12T18:40:34.648Z,7.18
2023-02-12T18:45:39.549Z,7.14
2023-02-12T18:50:43.575Z,7.12
2023-02-12T18:55:48.321Z,7.10
2023-02-12T19:00:52.416Z,7.08
2023-02-12T19:06:03.819Z,7.02
2023-02-12T19:11:09.396Z,6.98
2023-02-12T19:16:14.214Z,6.98
2023-02-12T19:21:19.109Z,6.96
2023-02-12T19:26:21.103Z,6.91
2023-02-12T19:31:28.406Z,6.92
2023-02-12T19:36:35.254Z,6.91
2023-02-12T19:41:41.254Z,6.87
2023-02-12T19:46:43.186Z,6.86
2023-02-12T19:51:45.555Z,6.81
2023-02-12T19:56:48.331Z,6.81
2023-02-12T20:01:56.540Z,6.79
2023-02-12T20:06:58.307Z,6.78
2023-02-12T20:12:02.306Z,6.79
2023-02-12T20:17:05.865Z,6.79
2023-02-12T20:22:10.156Z,6.75
2023-02-12T20:27:13.183Z,6.75
2023-02-12T20:32:17.673Z,6.75
2023-02-12T20:37:19.911Z,6.72
2023-02-12T20:42:22.906Z,6.72
2023-02-12T20:47:28.817Z,6.72
2023-02-12T20:52:31.859Z,6.69
2023-02-12T20:57:34.889Z,6.70
2023-02-12T21:02:36.999Z,6.69
2023-02-12T21:07:41.173Z,6.71
2023-02-12T21:12:43.132Z,6.69
2023-02-12T21:17:44.906Z,6.68
2023-02-12T21:22:52.006Z,6.66
2023-02-12T21:28:00.390Z,6.64
2023-02-12T21:33:05.145Z,6.61
2023-02-12T21:38:12.426Z,6.59
2023-02-12T21:43:19.468Z,6.59
2023-02-12T21:48:23.327Z,6.56
2023-02-12T21:53:28.340Z,6.54
2023-02-12T21:58:33.153Z,6.52
2023-02-12T22:03:34.919Z,6.51
2023-02-12T22:08:37.062Z,6.52
2023-02-12T22:13:43.798Z,6.49
2023-02-12T22:18:46.468Z,6.47
2023-02-12T22:23:50.891Z,6.48
2023-02-12T22:29:01.380Z,6.45
2023-02-12T22:34:06.258Z,6.44
2023-02-12T22:39:13.178Z,6.41
2023-02-12T22:44:15.873Z,6.40
2023-02-12T22:49:20.048Z,6.40
2023-02-12T22:54:21.944Z,6.41
2023-02-12T22:59:26.412Z,6.38
2023-02-12T23:04:32.672Z,6.39
2023-02-12T23:09:39.018Z,6.38
2023-02-12T23:14:43.692Z,6.35
2023-02-12T23:19:48.225Z,6.33
2023-02-12T23:24:51.009Z,6.35
2023-02-12T23:29:55.492Z,6.34
2023-02-12T23:34:59.897Z,6.34
2023-02-12T23:40:04.023Z,6.31
2023-02-12T23:45:11.015Z,6.31
2023-02-12T23:50:12.740Z,6.29
2023-02-12T23:55:20.258Z,6.30
